createdAt,value
2018-09-30T00:02:35.677Z,8.18
2018-09-30T00:05:39.574Z,8.19
2018-09-30T00:08:43.467Z,8.15
2018-09-30T00:11:47.908Z,8.04
2018-09-30T00:14:51.820Z,8.01
2018-09-30T00:17:55.778Z,8.12
2018-09-30T00:20:59.677Z,7.94
2018-09-30T00:24:09.232Z,8.01
2018-09-30T00:27:19.089Z,7.97
2018-09-30T00:30:23.007Z,8.00
2018-09-30T00:33:26.901Z,8.00
2018-09-30T00:36:30.806Z,7.95
2018-09-30T00:39:34.714Z,7.94
2018-09-30T00:42:38.599Z,8.00
2018-09-30T00:45:42.833Z,8.01
2018-09-30T00:48:46.729Z,7.95
2018-09-30T00:51:50.639Z,8.04
2018-09-30T00:54:54.891Z,8.00
2018-09-30T00:57:59.005Z,8.09
2018-09-30T01:01:02.889Z,8.07
2018-09-30T01:04:07.381Z,8.13
2018-09-30T01:07:11.630Z,8.11
2018-09-30T01:10:15.552Z,8.12
2018-09-30T01:13:19.433Z,8.15
2018-09-30T01:16:23.350Z,8.14
2018-09-30T01:19:27.239Z,8.11
2018-09-30T01:22:31.220Z,8.14
2018-09-30T01:25:35.122Z,8.19
2018-09-30T01:28:39.574Z,8.13
2018-09-30T01:31:43.482Z,8.22
2018-09-30T01:34:47.385Z,8.25
2018-09-30T01:37:51.283Z,8.28
2018-09-30T01:40:55.190Z,8.25
2018-09-30T01:43:59.298Z,8.32
2018-09-30T01:47:03.210Z,8.29
2018-09-30T01:50:07.439Z,8.32
2018-09-30T01:53:11.524Z,8.26
2018-09-30T01:56:15.408Z,8.23
2018-09-30T01:59:19.319Z,8.31
2018-09-30T02:02:23.221Z,8.32
2018-09-30T02:05:27.128Z,8.34
2018-09-30T02:08:31.044Z,8.30
2018-09-30T02:11:34.944Z,8.32
2018-09-30T02:14:39.061Z,8.33
2018-09-30T02:17:43.030Z,8.27
2018-09-30T02:20:47.130Z,8.31
2018-09-30T02:23:51.066Z,8.29
2018-09-30T02:26:54.953Z,8.23
2018-09-30T02:29:58.874Z,8.30
2018-09-30T02:33:02.978Z,8.34
2018-09-30T02:36:06.877Z,8.33
2018-09-30T02:39:10.882Z,8.33
2018-09-30T02:42:14.799Z,8.26
2018-09-30T02:45:18.881Z,8.25
2018-09-30T02:48:22.766Z,8.23
2018-09-30T02:51:26.865Z,8.24
2018-09-30T02:54:30.742Z,8.25
2018-09-30T02:57:34.664Z,8.22
2018-09-30T03:00:38.740Z,8.19
2018-09-30T03:03:42.668Z,8.17
2018-09-30T03:06:51.833Z,8.13
2018-09-30T03:09:56.062Z,8.10
2018-09-30T03:13:00.029Z,8.10
2018-09-30T03:16:03.913Z,8.00
2018-09-30T03:19:07.882Z,8.02
2018-09-30T03:22:11.770Z,8.05
2018-09-30T03:25:15.979Z,7.96
2018-09-30T03:28:20.081Z,7.82
2018-09-30T03:31:24.056Z,7.84
2018-09-30T03:34:27.967Z,7.86
2018-09-30T03:37:31.856Z,7.93
2018-09-30T03:40:35.763Z,7.95
2018-09-30T03:43:39.649Z,7.90
2018-09-30T03:46:43.581Z,7.87
2018-09-30T03:49:47.487Z,7.70
2018-09-30T03:52:51.399Z,7.67
2018-09-30T03:55:55.521Z,7.77
2018-09-30T03:58:59.608Z,7.73
2018-09-30T04:02:04.038Z,7.77
2018-09-30T04:05:08.473Z,7.70
2018-09-30T04:08:12.537Z,7.78
2018-09-30T04:11:16.437Z,7.76
2018-09-30T04:14:20.334Z,7.78
2018-09-30T04:17:24.993Z,7.73
2018-09-30T04:20:29.002Z,7.74
2018-09-30T04:23:33.225Z,7.69
2018-09-30T04:26:38.582Z,7.66
2018-09-30T04:29:42.691Z,7.65
2018-09-30T04:32:46.927Z,7.61
2018-09-30T04:35:50.826Z,7.59
2018-09-30T04:38:54.715Z,7.60
2018-09-30T04:41:58.607Z,7.62
2018-09-30T04:45:02.515Z,7.62
2018-09-30T04:48:06.774Z,7.66
2018-09-30T04:51:10.657Z,7.61
2018-09-30T04:54:14.745Z,7.64
2018-09-30T04:57:18.773Z,7.65
2018-09-30T05:00:22.654Z,7.72
2018-09-30T05:03:27.078Z,7.75
2018-09-30T05:06:30.975Z,7.74
2018-09-30T05:09:35.064Z,7.72
2018-09-30T05:12:38.974Z,7.72
2018-09-30T05:15:42.879Z,7.70
2018-09-30T05:18:46.774Z,7.72
2018-09-30T05:21:50.675Z,7.67
2018-09-30T05:24:54.613Z,7.71
2018-09-30T05:27:58.638Z,7.69
2018-09-30T05:31:02.561Z,7.72
2018-09-30T05:34:06.681Z,7.72
2018-09-30T05:37:10.795Z,7.69
2018-09-30T05:40:14.873Z,7.69
2018-09-30T05:43:18.777Z,7.68
2018-09-30T05:46:22.680Z,7.69
2018-09-30T05:49:26.815Z,7.71
2018-09-30T05:52:30.726Z,7.69
2018-09-30T05:55:34.621Z,7.71
2018-09-30T05:58:38.493Z,7.70
2018-09-30T06:01:42.497Z,7.71
2018-09-30T06:04:46.501Z,7.74
2018-09-30T06:07:50.419Z,7.70
2018-09-30T06:10:54.669Z,7.72
2018-09-30T06:13:58.684Z,7.66
2018-09-30T06:17:02.741Z,7.71
2018-09-30T06:20:07.090Z,7.65
2018-09-30T06:23:10.966Z,7.71
2018-09-30T06:26:14.858Z,7.72
2018-09-30T06:29:34.129Z,7.81
2018-09-30T06:32:46.247Z,7.80
2018-09-30T06:35:50.189Z,7.82
2018-09-30T06:38:54.131Z,7.89
2018-09-30T06:42:06.686Z,7.96
2018-09-30T06:45:14.620Z,7.92
2018-09-30T06:48:18.825Z,7.96
2018-09-30T06:51:22.738Z,8.03
2018-09-30T06:54:26.673Z,8.07
2018-09-30T06:57:30.858Z,8.13
2018-09-30T07:00:34.790Z,8.18
2018-09-30T07:03:38.673Z,8.09
2018-09-30T07:06:42.556Z,8.10
2018-09-30T07:09:46.551Z,8.16
2018-09-30T07:12:50.447Z,8.15
2018-09-30T07:15:54.361Z,8.25
2018-09-30T07:18:58.343Z,8.29
2018-09-30T07:22:02.371Z,8.38
2018-09-30T07:25:07.036Z,8.38
2018-09-30T07:28:11.101Z,8.41
2018-09-30T07:31:15.129Z,8.49
2018-09-30T07:34:19.054Z,8.53
2018-09-30T07:37:22.984Z,8.54
2018-09-30T07:40:29.097Z,8.57
2018-09-30T07:43:33.536Z,8.50
2018-09-30T07:46:37.453Z,8.54
2018-09-30T07:49:41.578Z,8.59
2018-09-30T07:52:45.515Z,8.68
2018-09-30T07:55:49.506Z,8.74
2018-09-30T07:58:53.866Z,8.83
2018-09-30T08:01:58.477Z,8.90
2018-09-30T08:05:02.719Z,8.99
2018-09-30T08:08:06.662Z,9.09
2018-09-30T08:11:10.897Z,9.14
2018-09-30T08:14:14.936Z,9.22
2018-09-30T08:17:21.324Z,9.26
2018-09-30T08:20:25.237Z,9.34
2018-09-30T08:23:29.126Z,9.42
2018-09-30T08:26:33.214Z,9.50
2018-09-30T08:29:37.406Z,9.57
2018-09-30T08:32:42.160Z,9.67
2018-09-30T08:35:51.271Z,9.73
2018-09-30T08:38:55.395Z,9.80
2018-09-30T08:41:59.664Z,9.91
2018-09-30T08:45:07.046Z,9.97
2018-09-30T08:48:10.941Z,10.03
2018-09-30T08:51:14.863Z,10.13
2018-09-30T08:54:18.842Z,10.22
2018-09-30T08:57:22.996Z,10.29
2018-09-30T09:00:28.114Z,10.39
2018-09-30T09:03:32.100Z,10.48
2018-09-30T09:06:37.239Z,10.53
2018-09-30T09:09:41.223Z,10.63
2018-09-30T09:12:47.321Z,10.68
2018-09-30T09:15:52.002Z,10.71
2018-09-30T09:18:57.331Z,10.76
2018-09-30T09:22:01.302Z,10.86
2018-09-30T09:25:12.642Z,10.93
2018-09-30T09:28:17.547Z,11.04
2018-09-30T09:31:21.502Z,11.07
2018-09-30T09:34:26.726Z,11.11
2018-09-30T09:37:31.359Z,11.16
2018-09-30T09:40:35.668Z,11.21
2018-09-30T09:43:39.597Z,11.24
2018-09-30T09:46:43.598Z,11.30
2018-09-30T09:49:47.567Z,11.38
2018-09-30T09:52:51.697Z,11.42
2018-09-30T09:55:55.592Z,11.49
2018-09-30T09:58:59.606Z,11.60
2018-09-30T10:02:03.577Z,11.71
2018-09-30T10:05:07.521Z,11.80
2018-09-30T10:08:12.028Z,11.89
2018-09-30T10:11:16.081Z,12.00
2018-09-30T10:14:20.088Z,12.09
2018-09-30T10:17:24.014Z,12.16
2018-09-30T10:20:28.048Z,12.24
2018-09-30T10:23:31.940Z,12.30
2018-09-30T10:26:36.140Z,12.35
2018-09-30T10:29:40.028Z,12.40
2018-09-30T10:32:44.300Z,12.42
2018-09-30T10:35:48.249Z,12.51
2018-09-30T10:38:52.410Z,12.58
2018-09-30T10:41:56.417Z,12.58
2018-09-30T10:45:00.539Z,12.64
2018-09-30T10:48:04.561Z,12.67
2018-09-30T10:51:08.468Z,12.67
2018-09-30T10:54:12.633Z,12.66
2018-09-30T10:57:16.739Z,12.71
2018-09-30T11:00:20.961Z,12.76
2018-09-30T11:03:24.872Z,12.80
2018-09-30T11:06:29.065Z,12.82
2018-09-30T11:09:33.215Z,12.87
2018-09-30T11:12:37.326Z,12.95
2018-09-30T11:15:44.303Z,12.97
2018-09-30T11:18:53.040Z,13.00
2018-09-30T11:21:56.935Z,13.06
2018-09-30T11:25:01.387Z,13.08
2018-09-30T11:28:05.294Z,13.17
2018-09-30T11:31:09.529Z,13.27
2018-09-30T11:34:13.506Z,13.32
2018-09-30T11:37:17.567Z,13.32
2018-09-30T11:40:21.457Z,13.39
2018-09-30T11:43:28.401Z,13.43
2018-09-30T11:46:32.334Z,13.60
2018-09-30T11:49:36.650Z,13.70
2018-09-30T11:52:40.614Z,13.80
2018-09-30T11:55:52.825Z,13.89
2018-09-30T11:59:06.653Z,13.91
2018-09-30T12:02:12.269Z,13.94
2018-09-30T12:05:26.580Z,13.97
2018-09-30T12:08:39.659Z,14.05
2018-09-30T12:11:45.227Z,14.06
2018-09-30T12:14:49.460Z,14.19
2018-09-30T12:21:31.491Z,14.27
2018-09-30T12:24:35.539Z,14.23
2018-09-30T12:27:39.743Z,14.24
2018-09-30T12:30:51.022Z,14.32
2018-09-30T12:33:55.791Z,14.36
2018-09-30T12:36:59.748Z,14.57
2018-09-30T12:40:04.080Z,14.64
2018-09-30T12:43:08.591Z,14.89
2018-09-30T12:46:13.525Z,14.87
2018-09-30T12:49:17.483Z,14.91
2018-09-30T12:52:28.579Z,15.02
2018-09-30T12:55:40.162Z,15.00
2018-09-30T12:58:49.740Z,15.06
2018-09-30T13:02:00.611Z,15.08
2018-09-30T13:05:06.935Z,15.17
2018-09-30T13:08:11.027Z,15.21
2018-09-30T13:11:14.977Z,15.22
2018-09-30T13:14:19.165Z,15.25
2018-09-30T13:17:24.737Z,15.24
2018-09-30T13:20:28.854Z,15.24
2018-09-30T13:23:32.935Z,15.26
2018-09-30T13:26:43.653Z,15.31
2018-09-30T13:35:09.802Z,15.32
2018-09-30T13:38:20.951Z,15.36
2018-09-30T13:41:33.149Z,15.43
2018-09-30T13:44:45.654Z,15.54
2018-09-30T13:47:50.327Z,15.64
2018-09-30T13:50:54.221Z,15.67
2018-09-30T13:53:58.561Z,15.63
2018-09-30T13:57:02.559Z,15.63
2018-09-30T14:00:07.401Z,15.66
2018-09-30T14:03:11.336Z,15.62
2018-09-30T14:06:15.193Z,15.59
2018-09-30T14:09:19.085Z,15.60
2018-09-30T14:12:23.319Z,15.60
2018-09-30T14:15:27.247Z,15.57
2018-09-30T14:18:31.128Z,15.55
2018-09-30T14:21:35.030Z,15.53
2018-09-30T14:24:38.913Z,15.48
2018-09-30T14:27:42.823Z,15.49
2018-09-30T14:30:46.742Z,15.48
2018-09-30T14:33:50.901Z,15.39
2018-09-30T14:36:54.804Z,15.45
2018-09-30T14:39:58.727Z,15.39
2018-09-30T14:43:02.629Z,15.37
2018-09-30T14:46:07.118Z,15.36
2018-09-30T14:49:11.370Z,15.35
2018-09-30T14:52:15.753Z,15.34
2018-09-30T14:55:19.641Z,15.30
2018-09-30T14:58:23.530Z,15.26
2018-09-30T15:01:27.434Z,15.23
2018-09-30T15:04:31.318Z,15.25
2018-09-30T15:07:35.237Z,15.26
2018-09-30T15:10:39.125Z,15.20
2018-09-30T15:13:43.069Z,15.22
2018-09-30T15:16:46.982Z,15.18
2018-09-30T15:19:50.869Z,15.16
2018-09-30T15:22:54.961Z,15.15
2018-09-30T15:25:59.194Z,15.16
2018-09-30T15:29:03.089Z,15.09
2018-09-30T15:32:06.993Z,15.06
2018-09-30T15:35:11.217Z,15.04
2018-09-30T15:38:15.113Z,15.03
2018-09-30T15:41:19.030Z,15.01
2018-09-30T15:44:23.049Z,15.00
2018-09-30T15:47:26.921Z,14.98
2018-09-30T15:50:30.844Z,14.93
2018-09-30T15:53:34.765Z,14.91
2018-09-30T15:56:38.979Z,14.87
2018-09-30T15:59:43.025Z,14.86
2018-09-30T16:02:47.000Z,14.86
2018-09-30T16:05:50.913Z,14.85
2018-09-30T16:08:54.803Z,14.79
2018-09-30T16:11:58.886Z,14.76
2018-09-30T16:15:02.867Z,14.72
2018-09-30T16:18:06.773Z,14.68
2018-09-30T16:21:11.047Z,14.63
2018-09-30T16:24:15.129Z,14.59
2018-09-30T16:27:19.005Z,14.54
2018-09-30T16:30:22.901Z,14.51
2018-09-30T16:33:27.080Z,14.50
2018-09-30T16:36:31.527Z,14.43
2018-09-30T16:39:35.418Z,14.40
2018-09-30T16:42:39.320Z,14.34
2018-09-30T16:45:43.206Z,14.31
2018-09-30T16:48:47.301Z,14.27
2018-09-30T16:51:51.244Z,14.24
2018-09-30T16:54:55.273Z,14.23
2018-09-30T16:57:59.170Z,14.17
2018-09-30T17:01:03.065Z,14.14
2018-09-30T17:04:07.292Z,14.11
2018-09-30T17:07:11.505Z,14.06
2018-09-30T17:10:15.729Z,14.00
2018-09-30T17:13:19.656Z,13.96
2018-09-30T17:16:23.568Z,13.91
2018-09-30T17:19:27.654Z,13.87
2018-09-30T17:22:31.748Z,13.80
2018-09-30T17:25:35.629Z,13.72
2018-09-30T17:28:39.509Z,13.66
2018-09-30T17:31:43.760Z,13.60
2018-09-30T17:34:47.734Z,13.51
2018-09-30T17:37:51.782Z,13.45
2018-09-30T17:40:56.227Z,13.37
2018-09-30T17:44:00.174Z,13.34
2018-09-30T17:47:04.533Z,13.32
2018-09-30T17:50:08.435Z,13.30
2018-09-30T17:53:12.510Z,13.22
2018-09-30T17:56:16.519Z,13.18
2018-09-30T17:59:20.401Z,13.15
2018-09-30T18:02:24.310Z,13.09
2018-09-30T18:05:28.203Z,13.04
2018-09-30T18:08:32.291Z,12.99
2018-09-30T18:11:36.353Z,12.96
2018-09-30T18:14:40.237Z,12.93
2018-09-30T18:17:44.223Z,12.88
2018-09-30T18:20:48.453Z,12.86
2018-09-30T18:23:52.447Z,12.85
2018-09-30T18:26:56.422Z,12.79
2018-09-30T18:30:00.370Z,12.77
2018-09-30T18:33:04.336Z,12.72
2018-09-30T18:36:08.229Z,12.69
2018-09-30T18:39:13.130Z,12.64
2018-09-30T18:42:17.134Z,12.57
2018-09-30T18:45:21.362Z,12.53
2018-09-30T18:48:25.461Z,12.46
2018-09-30T18:51:29.366Z,12.44
2018-09-30T18:54:33.261Z,12.43
2018-09-30T18:57:37.153Z,12.38
2018-09-30T19:00:44.103Z,12.38
2018-09-30T19:03:48.112Z,12.37
2018-09-30T19:06:52.009Z,12.33
2018-09-30T19:09:55.906Z,12.28
2018-09-30T19:12:59.802Z,12.28
2018-09-30T19:16:03.939Z,12.25
2018-09-30T19:19:08.404Z,12.19
2018-09-30T19:22:12.502Z,12.16
2018-09-30T19:25:16.403Z,12.14
2018-09-30T19:28:20.478Z,12.10
2018-09-30T19:31:24.555Z,12.07
2018-09-30T19:34:28.444Z,12.04
2018-09-30T19:37:32.344Z,11.99
2018-09-30T19:40:36.442Z,11.95
2018-09-30T19:43:40.333Z,11.90
2018-09-30T19:46:44.236Z,11.86
2018-09-30T19:49:48.109Z,11.81
2018-09-30T19:52:52.005Z,11.76
2018-09-30T19:55:55.888Z,11.71
2018-09-30T19:59:00.002Z,11.66
2018-09-30T20:02:03.906Z,11.59
2018-09-30T20:05:07.795Z,11.55
2018-09-30T20:08:11.699Z,11.52
2018-09-30T20:11:15.786Z,11.50
2018-09-30T20:14:19.722Z,11.45
2018-09-30T20:17:23.631Z,11.43
2018-09-30T20:20:27.512Z,11.41
2018-09-30T20:23:31.480Z,11.36
2018-09-30T20:26:35.718Z,11.35
2018-09-30T20:29:39.932Z,11.31
2018-09-30T20:32:43.820Z,11.28
2018-09-30T20:35:48.091Z,11.25
2018-09-30T20:38:51.985Z,11.23
2018-09-30T20:41:55.885Z,11.20
2018-09-30T20:44:59.794Z,11.18
2018-09-30T20:48:03.679Z,11.15
2018-09-30T20:51:07.610Z,11.11
2018-09-30T20:54:11.702Z,11.08
2018-09-30T20:57:15.581Z,11.04
2018-09-30T21:00:19.482Z,11.00
2018-09-30T21:03:23.349Z,10.96
2018-09-30T21:06:42.997Z,10.93
2018-09-30T21:09:46.881Z,10.89
2018-09-30T21:12:51.060Z,10.86
2018-09-30T21:15:55.297Z,10.87
2018-09-30T21:18:59.542Z,10.91
2018-09-30T21:22:03.417Z,10.80
2018-09-30T21:25:07.304Z,10.80
2018-09-30T21:28:11.201Z,10.71
2018-09-30T21:31:15.611Z,10.76
2018-09-30T21:34:19.518Z,10.73
2018-09-30T21:37:23.986Z,10.80
2018-09-30T21:40:27.873Z,10.83
2018-09-30T21:43:31.774Z,10.83
2018-09-30T21:46:35.977Z,10.85
2018-09-30T21:49:40.177Z,10.83
2018-09-30T21:52:44.078Z,10.87
2018-09-30T21:55:47.986Z,10.93
2018-09-30T21:58:51.875Z,10.89
2018-09-30T22:01:55.767Z,10.92
2018-09-30T22:04:59.652Z,10.94
2018-09-30T22:08:04.394Z,10.99
2018-09-30T22:11:08.615Z,11.00
2018-09-30T22:14:12.517Z,11.02
2018-09-30T22:17:16.406Z,11.00
2018-09-30T22:20:20.525Z,11.00
2018-09-30T22:23:24.420Z,11.00
2018-09-30T22:26:28.421Z,11.03
2018-09-30T22:29:32.318Z,11.03
2018-09-30T22:32:36.216Z,11.05
2018-09-30T22:35:40.117Z,11.06
2018-09-30T22:38:44.202Z,11.03
2018-09-30T22:41:48.102Z,11.04
2018-09-30T22:44:52.354Z,10.99
2018-09-30T22:47:56.246Z,10.99
2018-09-30T22:51:00.137Z,10.98
2018-09-30T22:54:04.029Z,10.94
2018-09-30T22:57:08.230Z,10.90
2018-09-30T23:00:12.348Z,10.89
2018-09-30T23:03:16.253Z,10.83
2018-09-30T23:06:20.147Z,10.86
2018-09-30T23:09:24.059Z,10.80
2018-09-30T23:12:28.169Z,10.82
2018-09-30T23:15:32.065Z,10.84
2018-09-30T23:18:35.966Z,10.83
2018-09-30T23:21:39.862Z,10.91
2018-09-30T23:24:43.757Z,10.94
2018-09-30T23:27:47.642Z,10.98
2018-09-30T23:30:51.537Z,10.99
2018-09-30T23:33:55.462Z,10.99
2018-09-30T23:36:59.354Z,11.04
2018-09-30T23:40:03.538Z,11.09
2018-09-30T23:43:07.814Z,11.06
2018-09-30T23:46:11.731Z,11.09
2018-09-30T23:49:15.625Z,11.12
2018-09-30T23:52:19.521Z,11.10
2018-09-30T23:55:23.422Z,11.10
2018-09-30T23:58:27.323Z,11.06
